NEODyS-2

Near Earth Objects - Dynamic Site
NEODyS ∴ Observatories ∴ Site 691 ∴ Obs & residuals
Contact »
691  ▹ 
OBSERVATIONS AND RESIDUALS

691-Steward Observatory, Kitt Peak-Spacewatch

Detections | Residuals | Detections & Residuals

[1-200] [201-400] [401-600] [601-800] [801-1000] [1001-1200] [1201-1400] [1401-1600] [1601-1800] [1801-2000] [2001-2200] [2201-2400] [2401-2600] [2601-2800] [2801-3000] [3001-3200] [3201-3400] [3401-3600] [3601-3800] [3801-4000] [4001-4200] [4201-4400] [4401-4600] [4601-4800] [4801-5000] [5001-5200] [5201-5400] [5401-5600] [5601-5800] [5801-6000] [6001-6200] [6201-6400] [6401-6600] [6601-6800] [6801-7000] [7001-7200] [7201-7400] [7401-7600] [7601-7800] [7801-8000] [8001-8200] [8201-8400] [8401-8600] [8601-8800] [8801-9000] [9001-9200] [9201-9400] [9401-9600] [9601-9800] [9801-10000] [10001-10200] [10201-10400] [10401-10600] [10601-10800] [10801-11000] [11001-11200] [11201-11400] [11401-11600] [11601-11800] [11801-12000] [12001-12200] [12201-12400] [12401-12600] [12601-12800] [12801-13000] [13001-13200] [13201-13400] [13401-13600] [13601-13800] [13801-14000] [14001-14200] [14201-14400] [14401-14600] [14601-14800] [14801-15000] [15001-15200] [15201-15400] [15401-15600] [15601-15800] [15801-16000] [16001-16200] [16201-16400] [16401-16600] [16601-16800] [16801-17000] [17001-17200] [17201-17400] [17401-17600] [17601-17800] [17801-18000] [18001-18200] [18201-18400] [18401-18600] [18601-18800] [18801-19000] [19001-19200] [19201-19400] [19401-19600] [19601-19800] [19801-20000] [20001-20200] [20201-20400] [20401-20600] [20601-20800] [20801-21000] [21001-21200] [21201-21400] [21401-21600] [21601-21800] [21801-22000] [22001-22200] [22201-22400] [22401-22600] [22601-22800] [22801-23000] [23001-23200] [23201-23400] [23401-23600] [23601-23800] [23801-24000] [24001-24200] [24201-24400] [24401-24600] [24601-24800] [24801-25000] [25001-25200] [25201-25400] [25401-25600] [25601-25800] [25801-26000] [26001-26200] [26201-26400] [26401-26600] [26601-26800] [26801-27000] [27001-27200] [27201-27400] [27401-27600] [27601-27800] [27801-28000] [28001-28200] [28201-28400] [28401-28600] [28601-28800] [28801-29000] [29001-29200] [29201-29400] [29401-29600] [29601-29800] [29801-30000] [30001-30200] [30201-30400] [30401-30600] [30601-30800] [30801-31000] [31001-31200] [31201-31400] [31401-31600] [31601-31800] [31801-32000] [32001-32200] [32201-32400] [32401-32600] [32601-32800] [32801-33000] [33001-33200] [33201-33400] [33401-33600] [33601-33800] [33801-34000] [34001-34200] [34201-34400] [34401-34600] [34601-34800] [34801-35000] [35001-35200] [35201-35400] [35401-35600] [35601-35800] [35801-36000] [36001-36200] [36201-36400] [36401-36600] [36601-36800] [36801-37000] [37001-37200] [37201-37400] [37401-37600] [37601-37800] [37801-38000] [38001-38200] [38201-38400] [38401-38600] [38601-38800] [38801-39000] [39001-39200] [39201-39400] [39401-39600] [39601-39800] [39801-40000] [40001-40200] [40201-40400] [40401-40600] [40601-40800] [40801-41000] [41001-41200] [41201-41400] [41401-41600] [41601-41800] [41801-42000] [42001-42200] [42201-42400] [42401-42600] [42601-42800] [42801-43000] [43001-43200] [43201-43400] [43401-43600] [43601-43800] [43801-44000] [44001-44200] [44201-44400] [44401-44600] [44601-44800] [44801-45000] [45001-45200] [45201-45400] [45401-45600] [45601-45800] [45801-46000] [46001-46200] [46201-46400] [46401-46600] [46601-46800] [46801-47000] [47001-47200] [47201-47400] [47401-47600] [47601-47800] [47801-48000] [48001-48200] [48201-48400] [48401-48600] [48601-48800] [48801-49000] [49001-49200] [49201-49400] [49401-49600] [49601-49800] [49801-50000] [50001-50200] [50201-50388]

Designation T Tech N Date Right Ascension Declination Apparent Magnitude Star Catalog Site code χ Used A Used M
yr-mo-day precision hr:min:sec precision rms F bias residual deg min sec precision rms F bias residual mag/col rms residual
2006UJ O C 2006-10-16.34183 1.000E-05 02:36:09.560 1.500E-01 0.500 F 0.002 -0.786 +13° 59' 58.30" 1.000E-01 0.500 F 0.537 -0.436 20.9 V 0.70 -0.14 c 691 1.95 Yes Yes
2006RG2 O C H 2006-10-16.44732 1.000E-05 03:32:01.570 1.500E-01 0.500 F -0.242 -0.212 +18° 23' 36.90" 1.000E-01 0.500 F 0.386 -0.190 18.1 V 0.70 0.50 c 691 0.57 Yes Yes
2006SK450 O C 2006-10-16.47464 1.000E-05 03:44:47.210 1.500E-01 0.500 F -0.150 -0.109 +16° 30' 31.40" 1.000E-01 0.500 F 0.358 -0.019 19.8 V 0.70 0.01 c 691 0.23 Yes Yes
2006TO O C H 2006-10-16.47713 1.000E-05 03:40:46.790 1.500E-01 0.500 F -0.216 0.042 +17° 46' 27.90" 1.000E-01 0.500 F 0.362 -0.617 22.0 V 0.70 0.63 c 691 1.27 Yes Yes
2004WG1 O C H 2006-10-16.48454 1.000E-05 03:58:27.310 1.500E-01 0.500 F -0.126 -0.037 +19° 34' 47.00" 1.000E-01 0.500 F 0.416 -0.276 19.8 V 0.70 0.67 c 691 0.56 Yes Yes
2006SK450 O C 2006-10-16.49207 1.000E-05 03:44:46.260 1.500E-01 0.500 F -0.150 -0.186 +16° 30' 51.70" 1.000E-01 0.500 F 0.358 0.009 19.7 V 0.70 -0.09 c 691 0.39 Yes Yes
2006TO O C H 2006-10-16.49456 1.000E-05 03:40:50.700 1.500E-01 0.500 F -0.216 -0.260 +17° 46' 15.20" 1.000E-01 0.500 F 0.362 -0.058 21.3 V 0.70 -0.07 c 691 0.55 Yes Yes
2004WG1 O C H 2006-10-16.50190 1.000E-05 03:58:25.240 1.500E-01 0.500 F -0.126 -0.198 +19° 34' 51.80" 1.000E-01 0.500 F 0.416 -0.195 19.6 V 0.70 0.47 c 691 0.56 Yes Yes
2006SK450 O C 2006-10-16.50942 1.000E-05 03:44:45.320 1.500E-01 0.500 F -0.150 -0.278 +16° 31' 11.80" 1.000E-01 0.500 F 0.358 -0.020 19.8 V 0.70 0.01 c 691 0.58 Yes Yes
2006UR O C 2006-10-17.08369 1.000E-05 23:17:39.450 1.500E-01 0.500 F 0.035 -0.307 +08° 21' 51.80" 1.000E-01 0.500 F 0.478 -0.528 20.7 V 0.70 0.10 c 691 1.24 Yes Yes
1993VW O C 2006-10-17.08934 1.000E-05 23:29:16.600 1.500E-01 0.500 F -0.205 -0.408 +08° 04' 48.40" 1.000E-01 0.500 F 0.340 -0.874 20.0 V 0.70 0.30 c 691 1.93 Yes Yes
2006SV189 O C 2006-10-17.09188 1.000E-05 23:28:49.620 1.500E-01 0.500 F -0.073 -0.132 +06° 50' 33.90" 1.000E-01 0.500 F 0.471 -0.052 20.4 V 0.70 0.64 c 691 0.29 Yes Yes
2006UK O C 2006-10-17.10232 1.000E-05 23:36:21.920 1.500E-01 0.500 F 0.026 0.218 +08° 43' 07.70" 1.000E-01 0.500 F 0.141 0.297 20.5 V 0.70 0.01 c 691 0.75 Yes Yes
2006UR O C 2006-10-17.10493 1.000E-05 23:17:37.970 1.500E-01 0.500 F 0.035 -0.434 +08° 21' 38.40" 1.000E-01 0.500 F 0.478 -0.244 20.4 V 0.70 -0.20 c 691 1.01 Yes Yes
1993VW O C 2006-10-17.11057 1.000E-05 23:29:15.140 1.500E-01 0.500 F -0.205 -0.210 +08° 04' 32.90" 1.000E-01 0.500 F 0.340 0.064 19.9 V 0.70 0.20 c 691 0.44 Yes Yes
2006SV189 O C 2006-10-17.11311 1.000E-05 23:28:47.380 1.500E-01 0.500 F -0.073 0.049 +06° 51' 03.10" 1.000E-01 0.500 F 0.471 -0.212 20.3 V 0.70 0.54 c 691 0.44 Yes Yes
2006UK O C 2006-10-17.12355 1.000E-05 23:36:18.690 1.500E-01 0.500 F 0.026 0.457 +08° 42' 42.20" 1.000E-01 0.500 F 0.141 0.171 20.5 V 0.70 0.01 c 691 0.99 Yes Yes
2006UR O C 2006-10-17.12616 1.000E-05 23:17:36.520 1.500E-01 0.500 F 0.035 -0.025 +08° 21' 24.60" 1.000E-01 0.500 F 0.478 -0.343 20.4 V 0.70 -0.20 c 691 0.69 Yes Yes
1993VW O C 2006-10-17.13180 1.000E-05 23:29:13.680 1.500E-01 0.500 F -0.205 0.044 +08° 04' 16.50" 1.000E-01 0.500 F 0.340 0.113 19.8 V 0.70 0.10 c 691 0.24 Yes Yes
2006SV189 O C 2006-10-17.13434 1.000E-05 23:28:45.090 1.500E-01 0.500 F -0.073 -0.354 +06° 51' 32.90" 1.000E-01 0.500 F 0.471 0.255 20.3 V 0.70 0.54 c 691 0.88 Yes Yes
2006UK O C 2006-10-17.14478 1.000E-05 23:36:15.360 1.500E-01 0.500 F 0.026 -0.639 +08° 42' 16.50" 1.000E-01 0.500 F 0.141 -0.115 20.7 V 0.70 0.21 c 691 1.31 Yes Yes
2006UX1 O C 2006-10-17.21282 1.000E-05 01:53:34.480 1.500E-01 0.500 F -0.149 -0.868 +18° 24' 08.40" 1.000E-01 0.500 F 0.402 0.557 21.5 V 0.70 0.47 c 691 2.11 Yes Yes
2006UX1 O C 2006-10-17.22277 1.000E-05 01:53:32.980 1.500E-01 0.500 F -0.149 0.264 +18° 24' 25.60" 1.000E-01 0.500 F 0.402 -0.238 21.4 V 0.70 0.37 c 691 0.73 Yes Yes
2006UX1 O C 2006-10-17.23273 1.000E-05 01:53:31.370 1.500E-01 0.500 F -0.149 -0.103 +18° 24' 44.10" 1.000E-01 0.500 F 0.402 0.262 21.5 V 0.70 0.47 c 691 0.58 Yes Yes
2006SV134 O C H 2006-10-17.31028 1.000E-05 02:31:45.230 1.500E-01 0.500 F -0.112 -0.045 +20° 32' 14.90" 1.000E-01 0.500 F 0.536 -0.247 20.4 V 0.70 0.52 c 691 0.50 Yes Yes
2005CK38 O C H 2006-10-17.31277 1.000E-05 02:28:23.020 1.500E-01 0.500 F -0.082 -0.152 +20° 25' 27.20" 1.000E-01 0.500 F 0.443 -0.767 c 691 1.58 Yes No
2006SV134 O C H 2006-10-17.32772 1.000E-05 02:31:43.430 1.500E-01 0.500 F -0.112 -0.202 +20° 31' 44.40" 1.000E-01 0.500 F 0.536 -0.017 20.5 V 0.70 0.62 c 691 0.41 Yes Yes
2005CK38 O C H 2006-10-17.33021 1.000E-05 02:28:21.880 1.500E-01 0.500 F -0.082 0.162 +20° 25' 23.70" 1.000E-01 0.500 F 0.443 -1.458 c 691 2.95 Yes No
2006SV134 O C H 2006-10-17.34514 1.000E-05 02:31:41.660 1.500E-01 0.500 F -0.112 0.046 +20° 31' 13.60" 1.000E-01 0.500 F 0.536 -0.079 20.2 V 0.70 0.32 c 691 0.18 Yes Yes
1999FP59 O C 2006-10-17.42883 1.000E-05 03:31:31.970 1.500E-01 0.500 F -0.074 -0.115 +20° 23' 16.10" 1.000E-01 0.500 F 0.380 0.046 18.7 V 0.70 0.17 c 691 0.25 Yes Yes
1999FP59 O C 2006-10-17.44620 1.000E-05 03:31:30.750 1.500E-01 0.500 F -0.074 -0.122 +20° 23' 15.40" 1.000E-01 0.500 F 0.380 -0.013 18.7 V 0.70 0.17 c 691 0.25 Yes Yes
1999FP59 O C 2006-10-17.46358 1.000E-05 03:31:29.530 1.500E-01 0.500 F -0.074 -0.171 +20° 23' 14.80" 1.000E-01 0.500 F 0.380 0.088 18.7 V 0.70 0.17 c 691 0.39 Yes Yes
2006UO O C 2006-10-17.48086 1.000E-05 04:04:54.310 1.500E-01 0.500 F 0.058 0.196 +21° 49' 28.60" 1.000E-01 0.500 F 0.030 -0.060 20.6 V 0.70 0.04 c 691 0.42 Yes Yes
2006UO O C 2006-10-17.49829 1.000E-05 04:04:58.430 1.500E-01 0.500 F 0.058 0.849 +21° 49' 49.00" 1.000E-01 0.500 F 0.030 0.102 20.9 V 0.70 0.34 c 691 1.75 Yes Yes
2006UO O C 2006-10-17.51580 1.000E-05 04:05:02.400 1.500E-01 0.500 F 0.058 -1.041 +21° 50' 08.70" 1.000E-01 0.500 F 0.030 -0.452 20.5 V 0.70 -0.05 c 691 2.32 Yes Yes
2006SQ78 O C t 2006-10-18.32170 1.000E-05 02:42:41.390 1.500E-01 0.500 F -0.253 0.512 +10° 59' 24.50" 1.000E-01 0.500 F 0.380 -0.507 19.1 V 0.70 0.37 c 691 1.45 Yes Yes
2006TD1 O C 2006-10-18.33790 1.000E-05 03:03:31.640 1.500E-01 0.500 F -0.050 -0.132 +12° 04' 40.40" 1.000E-01 0.500 F 0.416 -0.121 19.9 V 0.70 0.16 c 691 0.36 Yes Yes
2001SX169 O C 2006-10-18.34287 1.000E-05 03:04:00.910 1.500E-01 0.500 F -0.215 -0.073 +10° 40' 36.60" 1.000E-01 0.500 F 0.415 0.036 19.4 V 0.70 0.16 c 691 0.17 Yes Yes
2003CR20 O C 2006-10-18.34536 1.000E-05 02:56:46.730 1.500E-01 0.500 F -0.046 -0.330 +10° 09' 34.60" 1.000E-01 0.500 F 0.268 -0.407 20.7 V 0.70 0.49 c 691 1.05 Yes Yes
2006TD1 O C 2006-10-18.35527 1.000E-05 03:03:32.490 1.500E-01 0.500 F -0.050 0.204 +12° 04' 50.20" 1.000E-01 0.500 F 0.416 0.177 19.9 V 0.70 0.16 c 691 0.54 Yes Yes
2001SX169 O C 2006-10-18.36024 1.000E-05 03:03:59.400 1.500E-01 0.500 F -0.215 0.098 +10° 40' 25.90" 1.000E-01 0.500 F 0.415 0.043 19.4 V 0.70 0.16 c 691 0.21 Yes Yes
2003CR20 O C 2006-10-18.36273 1.000E-05 02:56:44.240 1.500E-01 0.500 F -0.046 0.117 +10° 09' 21.60" 1.000E-01 0.500 F 0.268 -0.226 20.5 V 0.70 0.29 c 691 0.51 Yes Yes
2006TD1 O C 2006-10-18.37264 1.000E-05 03:03:33.200 1.500E-01 0.500 F -0.050 -1.490 +12° 04' 59.30" 1.000E-01 0.500 F 0.416 -0.163 19.3 V 0.70 -0.44 c 691 3.01 Yes Yes
2001SX169 O C 2006-10-18.37761 1.000E-05 03:03:57.860 1.500E-01 0.500 F -0.215 -0.150 +10° 40' 15.20" 1.000E-01 0.500 F 0.415 0.082 19.5 V 0.70 0.26 c 691 0.35 Yes Yes
2003CR20 O C 2006-10-18.38011 1.000E-05 02:56:41.720 1.500E-01 0.500 F -0.046 0.137 +10° 09' 08.40" 1.000E-01 0.500 F 0.268 -0.220 20.4 V 0.70 0.19 c 691 0.52 Yes Yes
1990TG1 O C 2006-10-18.39390 1.000E-05 03:32:34.840 1.500E-01 0.500 F -0.057 -0.129 +14° 42' 59.10" 1.000E-01 0.500 F 0.223 -0.437 20.7 V 0.70 0.07 c 691 0.91 Yes Yes
2002AJ29 O C H 2006-10-18.40138 1.000E-05 03:31:27.710 1.500E-01 0.500 F -0.070 0.647 +13° 21' 00.50" 1.000E-01 0.500 F 0.267 -0.951 c 691 2.30 Yes No
1990TG1 O C 2006-10-18.41129 1.000E-05 03:32:34.010 1.500E-01 0.500 F -0.057 -0.262 +14° 42' 55.00" 1.000E-01 0.500 F 0.223 -0.147 20.7 V 0.70 0.07 c 691 0.60 Yes Yes
2002AJ29 O C H 2006-10-18.41877 1.000E-05 03:31:26.790 1.500E-01 0.500 F -0.070 0.331 +13° 20' 53.90" 1.000E-01 0.500 F 0.267 -0.133 21.5 V 0.70 -0.08 c 691 0.71 Yes Yes
1990TG1 O C 2006-10-18.42869 1.000E-05 03:32:33.200 1.500E-01 0.500 F -0.057 -0.100 +14° 42' 50.50" 1.000E-01 0.500 F 0.223 -0.246 20.8 V 0.70 0.17 c 691 0.53 Yes Yes
2002AJ29 O C H 2006-10-18.43617 1.000E-05 03:31:25.870 1.500E-01 0.500 F -0.070 0.018 +13° 20' 45.90" 1.000E-01 0.500 F 0.267 -0.697 21.3 V 0.70 -0.28 c 691 1.39 Yes Yes
2006UP O C 2006-10-18.45339 1.000E-05 04:01:07.500 1.500E-01 0.500 F -0.087 -0.321 +14° 27' 58.30" 1.000E-01 0.500 F 0.252 -0.102 20.8 V 0.70 0.50 c 691 0.68 Yes Yes
2006UP O C 2006-10-18.47078 1.000E-05 04:01:09.400 1.500E-01 0.500 F -0.087 0.064 +14° 28' 23.50" 1.000E-01 0.500 F 0.252 -0.263 20.5 V 0.70 0.20 c 691 0.55 Yes Yes
2006UP O C 2006-10-18.48818 1.000E-05 04:01:11.290 1.500E-01 0.500 F -0.087 0.043 +14° 28' 49.30" 1.000E-01 0.500 F 0.252 0.315 20.6 V 0.70 0.30 c 691 0.64 Yes Yes
2000UV13 O C 2006-10-19.07997 1.000E-05 23:24:59.750 1.500E-01 0.500 F -0.152 0.079 +09° 25' 57.00" 1.000E-01 0.500 F 0.445 -0.198 20.1 V 0.70 0.29 c 691 0.43 Yes Yes
2006SV189 O C t 2006-10-19.08250 1.000E-05 23:25:35.030 1.500E-01 0.500 F -0.068 0.705 +07° 36' 07.80" 1.000E-01 0.500 F 0.467 -0.597 20.4 V 0.70 0.59 c 691 1.86 Yes Yes
1993VW O C 2006-10-19.08250 1.000E-05 23:27:05.730 1.500E-01 0.500 F -0.068 0.047 +07° 39' 05.80" 1.000E-01 0.500 F 0.467 -0.329 19.9 V 0.70 0.16 c 691 0.67 Yes Yes
2000UV13 O C 2006-10-19.09638 1.000E-05 23:24:58.970 1.500E-01 0.500 F -0.152 -0.371 +09° 25' 53.20" 1.000E-01 0.500 F 0.445 -0.393 20.0 V 0.70 0.19 c 691 1.08 Yes Yes
2006SV189 O C t 2006-10-19.09892 1.000E-05 23:25:33.360 1.500E-01 0.500 F -0.068 0.218 +07° 36' 30.60" 1.000E-01 0.500 F 0.467 -0.484 20.0 V 0.70 0.19 c 691 1.07 Yes Yes
1993VW O C 2006-10-19.09892 1.000E-05 23:27:04.630 1.500E-01 0.500 F -0.068 -0.264 +07° 38' 53.30" 1.000E-01 0.500 F 0.467 -0.246 20.0 V 0.70 0.26 c 691 0.72 Yes Yes
2000UV13 O C 2006-10-19.10936 1.000E-05 23:24:58.390 1.500E-01 0.500 F -0.152 -0.171 +09° 25' 50.60" 1.000E-01 0.500 F 0.445 -0.139 19.9 V 0.70 0.09 c 691 0.44 Yes Yes
2006SV189 O C H 2006-10-19.11189 1.000E-05 23:25:32.080 1.500E-01 0.500 F -0.068 0.486 +07° 36' 48.90" 1.000E-01 0.500 F 0.467 -0.092 c 691 1.00 Yes No
1993VW O C 2006-10-19.11189 1.000E-05 23:27:03.770 1.500E-01 0.500 F -0.068 -0.353 +07° 38' 43.30" 1.000E-01 0.500 F 0.467 -0.303 20.0 V 0.70 0.26 c 691 0.93 Yes Yes
2006UK O C 2006-10-19.12909 1.000E-05 23:31:23.680 1.500E-01 0.500 F -0.100 0.254 +08° 01' 54.80" 1.000E-01 0.500 F 0.399 -0.290 20.6 V 0.70 0.09 c 691 0.77 Yes Yes
2006MX13 O C H 2006-10-19.13679 1.000E-05 23:32:15.080 1.500E-01 0.500 F -0.162 0.256 +00° 33' 55.40" 1.000E-01 0.500 F 0.497 -0.730 c 691 1.57 Yes No
2006UK O C 2006-10-19.14205 1.000E-05 23:31:21.710 1.500E-01 0.500 F -0.100 0.124 +08° 01' 39.00" 1.000E-01 0.500 F 0.399 -0.166 20.6 V 0.70 0.09 c 691 0.42 Yes Yes
2006MX13 O C H 2006-10-19.14976 1.000E-05 23:32:16.030 1.500E-01 0.500 F -0.162 0.014 +00° 34' 14.40" 1.000E-01 0.500 F 0.497 0.213 19.6 V 0.70 0.41 c 691 0.43 Yes Yes
2006UK O C 2006-10-19.15502 1.000E-05 23:31:19.740 1.500E-01 0.500 F -0.100 0.055 +08° 01' 22.80" 1.000E-01 0.500 F 0.399 -0.414 20.4 V 0.70 -0.11 c 691 0.84 Yes Yes
2006MX13 O C H 2006-10-19.16272 1.000E-05 23:32:16.990 1.500E-01 0.500 F -0.162 -0.012 +00° 34' 32.50" 1.000E-01 0.500 F 0.497 0.278 19.6 V 0.70 0.41 c 691 0.56 Yes Yes
2006RA55 O C 2006-10-19.17327 1.000E-05 01:37:07.750 1.500E-01 0.500 F -0.024 -0.001 +10° 30' 17.50" 1.000E-01 0.500 F 0.224 -0.189 18.9 V 0.70 0.39 c 691 0.38 Yes Yes
2006RA55 O C 2006-10-19.18321 1.000E-05 01:37:07.340 1.500E-01 0.500 F -0.024 -0.015 +10° 30' 18.40" 1.000E-01 0.500 F 0.224 -0.120 19.0 V 0.70 0.49 c 691 0.24 Yes Yes
2006RA55 O C 2006-10-19.19316 1.000E-05 01:37:06.930 1.500E-01 0.500 F -0.024 0.024 +10° 30' 19.00" 1.000E-01 0.500 F 0.224 -0.343 19.0 V 0.70 0.49 c 691 0.69 Yes Yes
2006SX217 O C 2006-10-19.27578 1.000E-05 02:41:00.630 1.500E-01 0.500 F -0.304 -0.723 +16° 31' 19.20" 1.000E-01 0.500 F 0.431 0.641 20.5 V 0.70 -0.09 c 691 1.93 Yes Yes
2006SX217 O C 2006-10-19.29317 1.000E-05 02:40:58.410 1.500E-01 0.500 F -0.304 -0.270 +16° 31' 25.50" 1.000E-01 0.500 F 0.431 0.321 20.6 V 0.70 0.01 c 691 0.84 Yes Yes
2006SX217 O C 2006-10-19.31056 1.000E-05 02:40:56.130 1.500E-01 0.500 F -0.304 -0.636 +16° 31' 32.20" 1.000E-01 0.500 F 0.431 0.433 20.6 V 0.70 0.02 c 691 1.54 Yes Yes
2003GA O C H 2006-10-19.32782 1.000E-05 03:08:03.020 1.500E-01 0.500 F -0.125 0.047 +13° 19' 53.50" 1.000E-01 0.500 F 0.391 -0.628 c 691 1.26 Yes No
2006UJ O C t 2006-10-19.33531 1.000E-05 02:45:05.760 1.500E-01 0.500 F -0.239 -0.185 +12° 44' 36.60" 1.000E-01 0.500 F 0.357 0.378 21.5 V 0.70 0.40 c 691 0.95 Yes Yes
2003GA O C H 2006-10-19.34527 1.000E-05 03:08:01.140 1.500E-01 0.500 F -0.125 0.888 +13° 19' 38.80" 1.000E-01 0.500 F 0.391 -0.031 c 691 1.84 Yes No
2006UJ O C t 2006-10-19.35276 1.000E-05 02:45:08.370 1.500E-01 0.500 F -0.239 0.480 +12° 44' 10.20" 1.000E-01 0.500 F 0.357 -0.384 21.5 V 0.70 0.40 c 691 1.40 Yes Yes
2003GA O C H 2006-10-19.36272 1.000E-05 03:07:59.130 1.500E-01 0.500 F -0.125 -0.134 +13° 19' 23.90" 1.000E-01 0.500 F 0.391 0.415 21.4 V 0.70 0.29 c 691 0.87 Yes Yes
2006UJ O C t 2006-10-19.37022 1.000E-05 02:45:10.970 1.500E-01 0.500 F -0.239 0.994 +12° 43' 44.10" 1.000E-01 0.500 F 0.357 -0.718 21.7 V 0.70 0.60 c 691 2.82 Yes Yes
2006UE17 O C 2006-10-19.46132 1.000E-05 04:00:05.570 1.500E-01 0.500 F 0.053 -0.395 +25° 55' 37.50" 1.000E-01 0.500 F 0.376 0.879 20.9 V 0.70 0.47 c 691 1.95 Yes Yes
2006UE17 O C 2006-10-19.48216 1.000E-05 04:00:06.060 1.500E-01 0.500 F 0.053 -0.106 +25° 56' 49.40" 1.000E-01 0.500 F 0.376 0.136 20.3 V 0.70 -0.13 c 691 0.35 Yes Yes
2006UE17 O C 2006-10-19.49955 1.000E-05 04:00:06.470 1.500E-01 0.500 F 0.053 -0.048 +25° 57' 50.20" 1.000E-01 0.500 F 0.376 0.420 20.3 V 0.70 -0.13 c 691 0.86 Yes Yes
Bede O C 2006-10-20.14288 1.000E-05 23:19:28.510 1.500E-01 0.500 F 0.032 -0.214 +09° 18' 26.80" 1.000E-01 0.500 F 0.560 -0.149 17.9 V 0.70 0.18 c 691 0.52 Yes Yes
Bede O C 2006-10-20.15614 1.000E-05 23:19:27.740 1.500E-01 0.500 F 0.032 -0.249 +09° 18' 26.00" 1.000E-01 0.500 F 0.560 -0.164 17.9 V 0.70 0.18 c 691 0.60 Yes Yes
Bede O C 2006-10-20.16941 1.000E-05 23:19:26.970 1.500E-01 0.500 F 0.032 -0.269 +09° 18' 25.20" 1.000E-01 0.500 F 0.560 -0.174 17.9 V 0.70 0.18 c 691 0.64 Yes Yes
2006UF O C 2006-10-20.28772 1.000E-05 02:20:06.250 1.500E-01 0.500 F -0.111 0.568 +13° 23' 08.70" 1.000E-01 0.500 F 0.492 -0.201 19.8 V 0.70 0.04 c 691 1.22 Yes Yes
2003HN O C H 2006-10-20.29274 1.000E-05 02:21:01.790 1.500E-01 0.500 F -0.089 0.909 +14° 34' 55.80" 1.000E-01 0.500 F 0.213 0.031 21.3 V 0.70 -0.30 c 691 1.89 Yes Yes
2006UF O C 2006-10-20.30512 1.000E-05 02:20:09.660 1.500E-01 0.500 F -0.111 0.692 +13° 22' 41.20" 1.000E-01 0.500 F 0.492 -0.409 19.8 V 0.70 0.04 c 691 1.63 Yes Yes
2003HN O C H 2006-10-20.31014 1.000E-05 02:21:00.110 1.500E-01 0.500 F -0.089 0.105 +14° 34' 39.40" 1.000E-01 0.500 F 0.213 0.025 21.4 V 0.70 -0.20 c 691 0.22 Yes Yes
2006UF O C 2006-10-20.32252 1.000E-05 02:20:13.050 1.500E-01 0.500 F -0.111 0.578 +13° 22' 14.00" 1.000E-01 0.500 F 0.492 -0.194 19.7 V 0.70 -0.06 c 691 1.24 Yes Yes
2006SK450 O C 2006-10-20.44073 1.000E-05 03:41:12.270 1.500E-01 0.500 F -0.216 -0.158 +17° 46' 21.60" 1.000E-01 0.500 F 0.362 -0.440 20.7 V 0.70 0.95 c 691 0.97 Yes Yes
2006TO O C t 2006-10-20.44813 1.000E-05 03:56:26.790 1.500E-01 0.500 F -0.045 1.891 +16° 52' 47.20" 1.000E-01 0.500 F 0.542 -1.075 c 691 4.21 No No
2006SK450 O C 2006-10-20.45815 1.000E-05 03:41:11.100 1.500E-01 0.500 F -0.216 -0.256 +17° 46' 42.20" 1.000E-01 0.500 F 0.362 0.975 19.7 V 0.70 -0.05 c 691 2.09 Yes Yes
2006TO O C t 2006-10-20.46554 1.000E-05 03:56:30.570 1.500E-01 0.500 F -0.045 0.894 +16° 52' 32.00" 1.000E-01 0.500 F 0.542 -0.319 21.8 V 0.70 0.52 c 691 1.96 Yes Yes
2006SK450 O C 2006-10-20.47556 1.000E-05 03:41:09.940 1.500E-01 0.500 F -0.216 -0.297 +17° 47' 00.30" 1.000E-01 0.500 F 0.362 -0.039 20.0 V 0.70 0.25 c 691 0.62 Yes Yes
2006TO O C t 2006-10-20.48296 1.000E-05 03:56:34.450 1.500E-01 0.500 F -0.045 1.131 +16° 52' 15.60" 1.000E-01 0.500 F 0.542 -0.635 21.1 V 0.70 -0.18 c 691 2.68 Yes Yes
2001BA40 O C t 2006-10-20.49991 1.000E-05 09:14:13.870 1.500E-01 0.500 F 0.209 0.686 +15° 11' 52.20" 1.000E-01 0.500 F 0.315 -0.970 21.5 V 0.70 -0.30 c 691 2.38 Yes Yes
1992TC O C H 2006-10-20.50478 1.000E-05 09:29:21.950 1.500E-01 0.500 F 0.313 0.797 +16° 23' 29.70" 1.000E-01 0.500 F 0.366 -0.187 c 691 1.64 Yes No
2001BA40 O C t 2006-10-20.51237 1.000E-05 09:14:15.500 1.500E-01 0.500 F 0.209 -0.191 +15° 11' 38.60" 1.000E-01 0.500 F 0.315 -1.211 21.5 V 0.70 -0.30 c 691 2.45 Yes Yes
1992TC O C H 2006-10-20.51724 1.000E-05 09:29:23.640 1.500E-01 0.500 F 0.313 1.371 +16° 23' 25.60" 1.000E-01 0.500 F 0.366 0.311 20.9 V 0.70 -0.44 c 691 2.81 Yes Yes
1992TC O C H 2006-10-20.52971 1.000E-05 09:29:25.230 1.500E-01 0.500 F 0.313 0.509 +16° 23' 21.50" 1.000E-01 0.500 F 0.366 0.819 20.2 V 0.70 -1.14 c 691 1.93 Yes Yes
2006SV189 O C 2006-10-21.09188 1.000E-05 23:22:31.580 1.500E-01 0.500 F -0.086 -1.106 +08° 22' 03.80" 1.000E-01 0.500 F 0.469 2.646 19.3 V 0.70 -0.56 c 691 5.69 No Yes
2006UK O C 2006-10-21.09440 1.000E-05 23:26:40.180 1.500E-01 0.500 F -0.068 -0.446 +07° 21' 05.20" 1.000E-01 0.500 F 0.467 -0.260 20.9 V 0.70 0.37 c 691 1.04 Yes Yes
1993VW O C 2006-10-21.09440 1.000E-05 23:25:01.190 1.500E-01 0.500 F -0.006 -0.096 +07° 13' 27.60" 1.000E-01 0.500 F 0.425 -0.594 19.9 V 0.70 0.12 c 691 1.20 Yes Yes
2006SV189 O C 2006-10-21.10483 1.000E-05 23:22:30.410 1.500E-01 0.500 F -0.086 -0.557 +08° 22' 19.30" 1.000E-01 0.500 F 0.469 0.322 19.9 V 0.70 0.04 c 691 1.29 Yes Yes
2006UK O C 2006-10-21.10736 1.000E-05 23:26:38.270 1.500E-01 0.500 F -0.068 -0.398 +07° 20' 48.90" 1.000E-01 0.500 F 0.467 -0.370 20.6 V 0.70 0.07 c 691 1.10 Yes Yes
1993VW O C 2006-10-21.10736 1.000E-05 23:25:00.380 1.500E-01 0.500 F -0.006 -0.203 +07° 13' 18.10" 1.000E-01 0.500 F 0.425 -0.305 20.0 V 0.70 0.22 c 691 0.73 Yes Yes
2006SV189 O C 2006-10-21.11778 1.000E-05 23:22:29.210 1.500E-01 0.500 F -0.086 -0.399 +08° 22' 36.90" 1.000E-01 0.500 F 0.469 0.112 19.9 V 0.70 0.04 c 691 0.83 Yes Yes
2006UK O C 2006-10-21.12031 1.000E-05 23:26:36.350 1.500E-01 0.500 F -0.068 -0.468 +07° 20' 33.00" 1.000E-01 0.500 F 0.467 -0.081 20.7 V 0.70 0.17 c 691 0.96 Yes Yes
1993VW O C 2006-10-21.12031 1.000E-05 23:24:59.570 1.500E-01 0.500 F -0.006 -0.300 +07° 13' 08.10" 1.000E-01 0.500 F 0.425 -0.520 19.9 V 0.70 0.12 c 691 1.20 Yes Yes
2006MX13 O C 2006-10-21.14361 1.000E-05 23:35:00.530 1.500E-01 0.500 F -0.152 0.435 +01° 19' 14.50" 1.000E-01 0.500 F 0.487 0.455 19.6 V 0.70 0.29 c 691 1.28 Yes Yes
2006MX13 O C 2006-10-21.15655 1.000E-05 23:35:01.500 1.500E-01 0.500 F -0.152 0.474 +01° 19' 31.50" 1.000E-01 0.500 F 0.487 0.391 19.7 V 0.70 0.39 c 691 1.25 Yes Yes
2006MX13 O C 2006-10-21.16962 1.000E-05 23:35:02.460 1.500E-01 0.500 F -0.152 0.262 +01° 19' 48.80" 1.000E-01 0.500 F 0.487 0.464 19.5 V 0.70 0.19 c 691 1.08 Yes Yes
2006UC63 O C 2006-10-21.17984 1.000E-05 01:46:13.500 1.500E-01 0.500 F -0.038 -0.970 +18° 14' 47.20" 1.000E-01 0.500 F 0.395 -0.057 21.8 V 0.70 0.89 c 691 1.96 Yes Yes
2006UC63 O C 2006-10-21.18976 1.000E-05 01:46:12.600 1.500E-01 0.500 F -0.038 -0.628 +18° 14' 34.50" 1.000E-01 0.500 F 0.395 -0.445 21.7 V 0.70 0.79 c 691 1.55 Yes Yes
2006UC63 O C 2006-10-21.19969 1.000E-05 01:46:11.680 1.500E-01 0.500 F -0.038 -0.534 +18° 14' 23.10" 1.000E-01 0.500 F 0.395 0.490 21.5 V 0.70 0.59 c 691 1.46 Yes Yes
2006UB17 O C H 2006-10-21.41404 1.000E-05 03:33:17.530 1.500E-01 0.500 F -0.114 -2.133 +22° 20' 32.50" 1.000E-01 0.500 F 0.349 -1.728 20.7 V 0.70 -0.66 c 691 5.23 No Yes
1999FP59 O C 2006-10-21.41907 1.000E-05 03:26:53.480 1.500E-01 0.500 F 0.061 -0.115 +20° 19' 43.90" 1.000E-01 0.500 F 0.423 -0.008 18.7 V 0.70 0.26 c 691 0.23 Yes Yes
2006UB17 O C H 2006-10-21.43140 1.000E-05 03:33:16.230 1.500E-01 0.500 F -0.114 -0.312 +22° 19' 48.10" 1.000E-01 0.500 F 0.349 -0.437 21.2 V 0.70 -0.16 c 691 1.15 Yes Yes
1999FP59 O C 2006-10-21.43642 1.000E-05 03:26:52.060 1.500E-01 0.500 F 0.061 -0.266 +20° 19' 42.30" 1.000E-01 0.500 F 0.423 -0.035 18.8 V 0.70 0.36 c 691 0.54 Yes Yes
2006UB17 O C H 2006-10-21.44875 1.000E-05 03:33:14.910 1.500E-01 0.500 F -0.114 0.684 +22° 19' 01.80" 1.000E-01 0.500 F 0.349 -0.523 20.9 V 0.70 -0.46 c 691 1.79 Yes Yes
1999FP59 O C 2006-10-21.45377 1.000E-05 03:26:50.650 1.500E-01 0.500 F 0.061 -0.335 +20° 19' 40.70" 1.000E-01 0.500 F 0.423 -0.004 18.8 V 0.70 0.36 c 691 0.67 Yes Yes
2006RG2 O C 2006-10-21.47601 1.000E-05 03:43:21.230 1.500E-01 0.500 F -0.081 0.768 +21° 23' 26.50" 1.000E-01 0.500 F 0.384 0.734 17.5 V 0.70 0.33 c 691 2.14 Yes Yes
2006RG2 O C 2006-10-21.49341 1.000E-05 03:43:23.700 1.500E-01 0.500 F -0.081 0.709 +21° 24' 08.60" 1.000E-01 0.500 F 0.384 0.711 17.5 V 0.70 0.34 c 691 2.02 Yes Yes
2004WG1 O C H 2006-10-21.50831 1.000E-05 03:48:15.250 1.500E-01 0.500 F -0.017 -0.690 +19° 55' 54.70" 1.000E-01 0.500 F 0.385 0.321 19.6 V 0.70 0.56 c 691 1.53 Yes Yes
2006RG2 O C 2006-10-21.51081 1.000E-05 03:43:26.190 1.500E-01 0.500 F -0.081 0.705 +21° 24' 50.70" 1.000E-01 0.500 F 0.384 0.732 17.5 V 0.70 0.34 c 691 2.05 Yes Yes
2006SV189 O C H 2006-10-22.13161 1.000E-05 23:21:02.190 1.500E-01 0.500 F 0.032 -0.232 +08° 45' 41.50" 1.000E-01 0.500 F 0.560 0.253 c 691 0.69 Yes No
Bede O C 2006-10-22.13161 1.000E-05 23:17:43.170 1.500E-01 0.500 F -0.035 -0.217 +09° 16' 30.10" 1.000E-01 0.500 F 0.469 -0.184 18.6 V 0.70 0.81 c 691 0.57 Yes Yes
2006SV189 O C H 2006-10-22.14489 1.000E-05 23:21:00.960 1.500E-01 0.500 F 0.032 -0.681 +08° 45' 59.50" 1.000E-01 0.500 F 0.560 0.067 20.2 V 0.70 0.31 c 691 1.38 Yes Yes
Bede O C 2006-10-22.14489 1.000E-05 23:17:42.470 1.500E-01 0.500 F -0.035 -0.201 +09° 16' 29.40" 1.000E-01 0.500 F 0.469 -0.172 18.6 V 0.70 0.81 c 691 0.53 Yes Yes
2006SV189 O C H 2006-10-22.15817 1.000E-05 23:20:59.770 1.500E-01 0.500 F 0.032 -0.509 +08° 46' 17.80" 1.000E-01 0.500 F 0.560 0.198 20.0 V 0.70 0.11 c 691 1.10 Yes Yes
Bede O C 2006-10-22.15817 1.000E-05 23:17:41.760 1.500E-01 0.500 F -0.035 -0.327 +09° 16' 28.70" 1.000E-01 0.500 F 0.469 -0.155 18.6 V 0.70 0.81 c 691 0.72 Yes Yes
2006UF O C H 2006-10-22.25551 1.000E-05 02:27:09.470 1.500E-01 0.500 F -0.089 1.608 +12° 29' 28.10" 1.000E-01 0.500 F 0.445 -0.408 c 691 3.26 No No
2006UF O C t 2006-10-22.27288 1.000E-05 02:27:13.000 1.500E-01 0.500 F -0.089 1.878 +12° 28' 58.10" 1.000E-01 0.500 F 0.445 -1.373 19.3 V 0.70 -0.39 c 691 4.58 No Yes
2006UF O C t 2006-10-22.29024 1.000E-05 02:27:16.490 1.500E-01 0.500 F -0.089 1.739 +12° 28' 28.90" 1.000E-01 0.500 F 0.445 -1.441 19.3 V 0.70 -0.38 c 691 4.44 No Yes
2006UJ O C t 2006-10-22.30991 1.000E-05 02:52:47.270 1.500E-01 0.500 F -0.033 0.374 +11° 34' 04.60" 1.000E-01 0.500 F 0.423 -0.526 21.4 V 0.70 0.22 c 691 1.58 Yes Yes
2003GA O C H 2006-10-22.31234 1.000E-05 03:02:42.670 1.500E-01 0.500 F -0.050 0.054 +12° 35' 31.50" 1.000E-01 0.500 F 0.416 -0.576 21.2 V 0.70 0.19 c 691 1.16 Yes Yes
2006TD1 O C 2006-10-22.31234 1.000E-05 03:07:14.870 1.500E-01 0.500 F -0.040 0.354 +12° 42' 02.30" 1.000E-01 0.500 F 0.443 0.210 19.6 V 0.70 0.06 c 691 0.83 Yes Yes
2001SX169 O C 2006-10-22.31982 1.000E-05 02:57:59.940 1.500E-01 0.500 F -0.173 -0.499 +09° 57' 12.40" 1.000E-01 0.500 F 0.344 -0.638 19.3 V 0.70 0.32 c 691 1.63 Yes Yes
2003CR20 O C 2006-10-22.32231 1.000E-05 02:47:32.550 1.500E-01 0.500 F -0.103 -0.394 +09° 20' 22.70" 1.000E-01 0.500 F 0.242 -0.547 20.6 V 0.70 0.41 c 691 1.36 Yes Yes
2006UJ O C t 2006-10-22.32729 1.000E-05 02:52:49.430 1.500E-01 0.500 F -0.033 0.165 +11° 33' 41.50" 1.000E-01 0.500 F 0.423 0.019 20.8 V 0.70 -0.38 c 691 0.40 Yes Yes
2003GA O C H 2006-10-22.32973 1.000E-05 03:02:40.620 1.500E-01 0.500 F -0.050 -0.041 +12° 35' 16.90" 1.000E-01 0.500 F 0.416 0.419 21.3 V 0.70 0.29 c 691 0.85 Yes Yes
2006TD1 O C 2006-10-22.32973 1.000E-05 03:07:15.600 1.500E-01 0.500 F -0.040 0.390 +12° 42' 12.60" 1.000E-01 0.500 F 0.443 0.182 19.8 V 0.70 0.26 c 691 0.87 Yes Yes
2001SX169 O C 2006-10-22.33720 1.000E-05 02:57:58.120 1.500E-01 0.500 F -0.173 -0.584 +09° 57' 00.50" 1.000E-01 0.500 F 0.344 -0.547 19.1 V 0.70 0.12 c 691 1.61 Yes Yes
2003CR20 O C 2006-10-22.33969 1.000E-05 02:47:30.070 1.500E-01 0.500 F -0.103 -0.902 +09° 20' 10.10" 1.000E-01 0.500 F 0.242 -0.597 20.6 V 0.70 0.41 c 691 2.17 Yes Yes
2006UJ O C H 2006-10-22.34467 1.000E-05 02:52:51.530 1.500E-01 0.500 F -0.033 -0.838 +11° 33' 18.20" 1.000E-01 0.500 F 0.423 0.457 c 691 2.35 Yes No
2006TD1 O C 2006-10-22.34711 1.000E-05 03:07:16.320 1.500E-01 0.500 F -0.040 0.347 +12° 42' 22.70" 1.000E-01 0.500 F 0.443 0.028 19.8 V 0.70 0.26 c 691 0.70 Yes Yes
2001SX169 O C 2006-10-22.35458 1.000E-05 02:57:56.310 1.500E-01 0.500 F -0.173 -0.491 +09° 56' 48.40" 1.000E-01 0.500 F 0.344 -0.625 19.1 V 0.70 0.12 c 691 1.60 Yes Yes
2003CR20 O C 2006-10-22.35708 1.000E-05 02:47:27.600 1.500E-01 0.500 F -0.103 -1.247 +09° 19' 57.50" 1.000E-01 0.500 F 0.242 -0.626 20.4 V 0.70 0.22 c 691 2.80 Yes Yes
2002AJ29 O C 2006-10-22.37431 1.000E-05 03:27:57.830 1.500E-01 0.500 F 0.021 -0.258 +12° 52' 07.20" 1.000E-01 0.500 F 0.294 -0.066 21.2 V 0.70 -0.27 c 691 0.53 Yes Yes
1990TG1 O C H 2006-10-22.37431 1.000E-05 03:29:24.940 1.500E-01 0.500 F -0.057 -0.427 +14° 25' 56.10" 1.000E-01 0.500 F 0.223 -1.026 c 691 2.23 Yes No
1990TG1 O C H 2006-10-22.39511 1.000E-05 03:29:23.920 1.500E-01 0.500 F -0.057 -0.055 +14° 25' 51.70" 1.000E-01 0.500 F 0.223 0.020 21.0 V 0.70 0.43 c 691 0.12 Yes Yes
2002AJ29 O C 2006-10-22.39511 1.000E-05 03:27:56.640 1.500E-01 0.500 F 0.021 -0.202 +12° 51' 57.50" 1.000E-01 0.500 F 0.294 -0.458 21.5 V 0.70 0.03 c 691 1.00 Yes Yes
1990TG1 O C H 2006-10-22.41590 1.000E-05 03:29:22.840 1.500E-01 0.500 F -0.057 -0.564 +14° 25' 46.20" 1.000E-01 0.500 F 0.223 -0.026 20.6 V 0.70 0.04 c 691 1.13 Yes Yes
2002AJ29 O C 2006-10-22.41590 1.000E-05 03:27:55.440 1.500E-01 0.500 F 0.021 -0.303 +12° 51' 48.00" 1.000E-01 0.500 F 0.294 -0.637 21.7 V 0.70 0.23 c 691 1.41 Yes Yes
2006UF17 O C t 2006-10-22.46144 1.000E-05 03:44:52.360 1.500E-01 0.500 F -0.091 -4.442 +14° 35' 31.40" 1.000E-01 0.500 F 0.590 -0.890 20.5 V 0.70 0.72 c 691 8.89 No Yes
1998YN1 O C t 2006-10-22.49305 1.000E-05 09:41:13.300 1.500E-01 0.500 F 0.333 1.128 +17° 58' 20.90" 1.000E-01 0.500 F 0.395 -0.628 21.5 V 0.70 0.85 c 691 2.59 Yes Yes
1998YN1 O C t 2006-10-22.50553 1.000E-05 09:41:15.820 1.500E-01 0.500 F 0.333 1.645 +17° 58' 11.50" 1.000E-01 0.500 F 0.395 -0.516 21.7 V 0.70 1.05 c 691 3.44 No Yes
1998YN1 O C t 2006-10-22.51800 1.000E-05 09:41:18.270 1.500E-01 0.500 F 0.333 1.210 +17° 58' 01.30" 1.000E-01 0.500 F 0.395 -1.202 21.6 V 0.70 0.95 c 691 3.40 No Yes
2000UV13 O C H 2006-10-23.08443 1.000E-05 23:22:07.650 1.500E-01 0.500 F 0.032 -0.493 +09° 11' 24.30" 1.000E-01 0.500 F 0.560 -0.234 20.3 V 0.70 0.42 c 691 1.09 Yes Yes
2006UK O C H 2006-10-23.08696 1.000E-05 23:21:59.910 1.500E-01 0.500 F 0.006 -0.862 +06° 39' 06.40" 1.000E-01 0.500 F 0.556 -0.508 20.5 V 0.70 -0.06 c 691 2.02 Yes Yes
2000UV13 O C H 2006-10-23.09739 1.000E-05 23:22:07.120 1.500E-01 0.500 F 0.032 -0.331 +09° 11' 21.30" 1.000E-01 0.500 F 0.560 -0.482 20.3 V 0.70 0.42 c 691 1.17 Yes Yes
2006UK O C H 2006-10-23.09992 1.000E-05 23:21:58.060 1.500E-01 0.500 F 0.006 -0.701 +06° 38' 49.70" 1.000E-01 0.500 F 0.556 -0.833 20.7 V 0.70 0.14 c 691 2.20 Yes Yes
1993VW O C H 2006-10-23.09992 1.000E-05 23:23:05.190 1.500E-01 0.500 F -0.006 -0.071 +06° 48' 20.40" 1.000E-01 0.500 F 0.425 -1.175 c 691 2.36 Yes No
2000UV13 O C H 2006-10-23.11034 1.000E-05 23:22:06.600 1.500E-01 0.500 F 0.032 -0.020 +09° 11' 18.00" 1.000E-01 0.500 F 0.560 -1.030 c 691 2.06 Yes No
2006RA55 O C 2006-10-23.16763 1.000E-05 01:34:38.280 1.500E-01 0.500 F 0.044 -0.186 +10° 35' 04.40" 1.000E-01 0.500 F 0.306 0.052 19.0 V 0.70 0.44 c 691 0.39 Yes Yes
2006RA55 O C 2006-10-23.17759 1.000E-05 01:34:37.830 1.500E-01 0.500 F 0.044 -0.296 +10° 35' 05.20" 1.000E-01 0.500 F 0.306 -0.039 19.0 V 0.70 0.44 c 691 0.60 Yes Yes
2006RA55 O C 2006-10-23.18754 1.000E-05 01:34:37.390 1.500E-01 0.500 F 0.044 -0.219 +10° 35' 06.10" 1.000E-01 0.500 F 0.306 -0.020 19.0 V 0.70 0.44 c 691 0.44 Yes Yes
2006SV134 O C 2006-10-23.26027 1.000E-05 02:22:09.340 1.500E-01 0.500 F -0.161 -0.865 +17° 38' 01.70" 1.000E-01 0.500 F 0.517 -0.718 20.0 V 0.70 0.23 c 691 2.26 Yes Yes
2006SX217 O C t 2006-10-23.26767 1.000E-05 02:32:20.590 1.500E-01 0.500 F -0.246 -0.741 +16° 55' 09.60" 1.000E-01 0.500 F 0.349 -0.010 21.1 V 0.70 0.68 c 691 1.49 Yes Yes
2006SV134 O C 2006-10-23.27764 1.000E-05 02:22:07.620 1.500E-01 0.500 F -0.161 -0.951 +17° 37' 31.60" 1.000E-01 0.500 F 0.517 -0.786 20.1 V 0.70 0.33 c 691 2.49 Yes Yes
2006SX217 O C H 2006-10-23.28506 1.000E-05 02:32:18.180 1.500E-01 0.500 F -0.246 -0.947 +16° 55' 15.70" 1.000E-01 0.500 F 0.349 0.069 20.8 V 0.70 0.38 c 691 1.91 Yes Yes
2006SV134 O C 2006-10-23.29502 1.000E-05 02:22:05.910 1.500E-01 0.500 F -0.161 -0.854 +17° 37' 01.30" 1.000E-01 0.500 F 0.517 -1.005 20.0 V 0.70 0.24 c 691 2.66 Yes Yes
2006SX217 O C t 2006-10-23.30243 1.000E-05 02:32:15.790 1.500E-01 0.500 F -0.246 -0.871 +16° 55' 21.40" 1.000E-01 0.500 F 0.349 -0.214 22.3 V 0.70 1.88 c 691 1.81 Yes Yes
2006TK O C H 2006-10-23.31226 1.000E-05 02:44:02.040 1.500E-01 0.500 F -0.205 -0.681 +14° 44' 08.60" 1.000E-01 0.500 F -0.059 -0.063 21.1 V 0.70 -0.06 c 691 1.42 Yes Yes
2006TK O C H 2006-10-23.32970 1.000E-05 02:44:00.220 1.500E-01 0.500 F -0.205 0.242 +14° 44' 06.20" 1.000E-01 0.500 F -0.059 -0.476 21.6 V 0.70 0.44 c 691 1.12 Yes Yes
2006TK O C H 2006-10-23.34713 1.000E-05 02:43:58.330 1.500E-01 0.500 F -0.205 0.138 +14° 44' 05.00" 1.000E-01 0.500 F -0.059 0.339 c 691 0.75 Yes No
2006WH1 O C 2006-10-23.43626 1.000E-05 04:09:55.540 1.500E-01 0.500 F 0.291 0.038 +23° 39' 32.40" 1.000E-01 0.500 F 0.184 -0.245 20.7 V 0.70 0.05 c 691 0.50 Yes Yes
2006WH1 O C 2006-10-23.45375 1.000E-05 04:09:55.990 1.500E-01 0.500 F 0.291 0.158 +23° 39' 32.20" 1.000E-01 0.500 F 0.184 -0.081 20.6 V 0.70 -0.05 c 691 0.35 Yes Yes
2006WH1 O C 2006-10-23.47125 1.000E-05 04:09:56.520 1.500E-01 0.500 F 0.291 1.318 +23° 39' 31.70" 1.000E-01 0.500 F 0.184 -0.143 20.2 V 0.70 -0.45 c 691 2.65 Yes Yes
2001BA40 O C t 2006-10-23.48809 1.000E-05 09:21:02.540 1.500E-01 0.500 F 0.307 0.986 +14° 17' 25.90" 1.000E-01 0.500 F 0.391 -0.633 21.7 V 0.70 -0.07 c 691 2.34 Yes Yes
2001BA40 O C t 2006-10-23.50058 1.000E-05 09:21:04.280 1.500E-01 0.500 F 0.307 1.911 +14° 17' 12.60" 1.000E-01 0.500 F 0.391 -0.156 c 691 3.83 No No
2001BA40 O C t 2006-10-23.51308 1.000E-05 09:21:05.830 1.500E-01 0.500 F 0.307 0.079 +14° 16' 58.30" 1.000E-01 0.500 F 0.391 -0.661 21.6 V 0.70 -0.17 c 691 1.33 Yes Yes
2006RA55 O C 2006-10-27.17371 1.000E-05 01:32:01.630 1.500E-01 0.500 F -0.043 -0.002 +10° 40' 35.80" 1.000E-01 0.500 F 0.334 -0.374 19.1 V 0.70 0.48 c 691 0.75 Yes Yes
2006RA55 O C 2006-10-27.18366 1.000E-05 01:32:01.170 1.500E-01 0.500 F -0.043 -0.072 +10° 40' 37.00" 1.000E-01 0.500 F 0.334 -0.216 19.1 V 0.70 0.48 c 691 0.46 Yes Yes
2006RA55 O C 2006-10-27.19361 1.000E-05 01:32:00.710 1.500E-01 0.500 F -0.043 -0.102 +10° 40' 38.00" 1.000E-01 0.500 F 0.334 -0.247 19.1 V 0.70 0.48 c 691 0.54 Yes Yes
2006UF185 O C 2006-10-27.44634 1.000E-05 04:10:21.750 1.500E-01 0.500 F 0.333 -0.274 +24° 29' 18.10" 1.000E-01 0.500 F 0.245 -0.830 20.8 V 0.70 0.34 c 691 1.81 Yes Yes
2006UF185 O C 2006-10-27.46379 1.000E-05 04:10:20.830 1.500E-01 0.500 F 0.333 -0.147 +24° 27' 59.40" 1.000E-01 0.500 F 0.245 -0.795 20.5 V 0.70 0.04 c 691 1.67 Yes Yes
2006UF185 O C 2006-10-27.48130 1.000E-05 04:10:19.910 1.500E-01 0.500 F 0.333 -0.091 +24° 26' 40.40" 1.000E-01 0.500 F 0.245 -0.547 20.5 V 0.70 0.05 c 691 1.15 Yes Yes
1998WP5 O C 2006-10-28.20827 1.000E-05 02:06:36.860 1.500E-01 0.500 F -0.107 -0.316 +09° 55' 48.30" 1.000E-01 0.500 F 0.382 -0.320 18.4 V 0.70 0.71 c 691 0.90 Yes Yes
1998WP5 O C 2006-10-28.22572 1.000E-05 02:06:33.420 1.500E-01 0.500 F -0.107 0.003 +09° 56' 19.40" 1.000E-01 0.500 F 0.382 -0.312 18.4 V 0.70 0.71 c 691 0.63 Yes Yes
1998WP5 O C 2006-10-28.24316 1.000E-05 02:06:29.950 1.500E-01 0.500 F -0.107 -0.032 +09° 56' 50.30" 1.000E-01 0.500 F 0.382 -0.456 18.2 V 0.70 0.51 c 691 0.92 Yes Yes
2006SX217 O C 2006-10-28.26064 1.000E-05 02:20:53.930 1.500E-01 0.500 F -0.162 0.188 +17° 21' 37.30" 1.000E-01 0.500 F 0.517 0.207 20.6 V 0.70 0.40 c 691 0.56 Yes Yes
2006SV134 O C 2006-10-28.27404 1.000E-05 02:14:30.960 1.500E-01 0.500 F -0.243 -0.209 +15° 16' 10.60" 1.000E-01 0.500 F 0.286 0.113 19.8 V 0.70 0.18 c 691 0.48 Yes Yes
2006SX217 O C 2006-10-28.28489 1.000E-05 02:20:50.450 1.500E-01 0.500 F -0.162 0.321 +17° 21' 44.40" 1.000E-01 0.500 F 0.517 0.097 20.5 V 0.70 0.30 c 691 0.67 Yes Yes
2006SV134 O C 2006-10-28.29486 1.000E-05 02:14:29.000 1.500E-01 0.500 F -0.243 -0.920 +15° 15' 36.70" 1.000E-01 0.500 F 0.286 0.569 21.0 V 0.70 1.38 c 691 2.18 Yes Yes
2006SX217 O C 2006-10-28.30228 1.000E-05 02:20:47.910 1.500E-01 0.500 F -0.162 -0.198 +17° 21' 49.80" 1.000E-01 0.500 F 0.517 0.368 20.7 V 0.70 0.50 c 691 0.84 Yes Yes
2006SV134 O C 2006-10-28.31224 1.000E-05 02:14:27.470 1.500E-01 0.500 F -0.243 0.022 +15° 15' 07.40" 1.000E-01 0.500 F 0.286 -0.025 20.0 V 0.70 0.38 c 691 0.07 Yes Yes

[1-200] [201-400] [401-600] [601-800] [801-1000] [1001-1200] [1201-1400] [1401-1600] [1601-1800] [1801-2000] [2001-2200] [2201-2400] [2401-2600] [2601-2800] [2801-3000] [3001-3200] [3201-3400] [3401-3600] [3601-3800] [3801-4000] [4001-4200] [4201-4400] [4401-4600] [4601-4800] [4801-5000] [5001-5200] [5201-5400] [5401-5600] [5601-5800] [5801-6000] [6001-6200] [6201-6400] [6401-6600] [6601-6800] [6801-7000] [7001-7200] [7201-7400] [7401-7600] [7601-7800] [7801-8000] [8001-8200] [8201-8400] [8401-8600] [8601-8800] [8801-9000] [9001-9200] [9201-9400] [9401-9600] [9601-9800] [9801-10000] [10001-10200] [10201-10400] [10401-10600] [10601-10800] [10801-11000] [11001-11200] [11201-11400] [11401-11600] [11601-11800] [11801-12000] [12001-12200] [12201-12400] [12401-12600] [12601-12800] [12801-13000] [13001-13200] [13201-13400] [13401-13600] [13601-13800] [13801-14000] [14001-14200] [14201-14400] [14401-14600] [14601-14800] [14801-15000] [15001-15200] [15201-15400] [15401-15600] [15601-15800] [15801-16000] [16001-16200] [16201-16400] [16401-16600] [16601-16800] [16801-17000] [17001-17200] [17201-17400] [17401-17600] [17601-17800] [17801-18000] [18001-18200] [18201-18400] [18401-18600] [18601-18800] [18801-19000] [19001-19200] [19201-19400] [19401-19600] [19601-19800] [19801-20000] [20001-20200] [20201-20400] [20401-20600] [20601-20800] [20801-21000] [21001-21200] [21201-21400] [21401-21600] [21601-21800] [21801-22000] [22001-22200] [22201-22400] [22401-22600] [22601-22800] [22801-23000] [23001-23200] [23201-23400] [23401-23600] [23601-23800] [23801-24000] [24001-24200] [24201-24400] [24401-24600] [24601-24800] [24801-25000] [25001-25200] [25201-25400] [25401-25600] [25601-25800] [25801-26000] [26001-26200] [26201-26400] [26401-26600] [26601-26800] [26801-27000] [27001-27200] [27201-27400] [27401-27600] [27601-27800] [27801-28000] [28001-28200] [28201-28400] [28401-28600] [28601-28800] [28801-29000] [29001-29200] [29201-29400] [29401-29600] [29601-29800] [29801-30000] [30001-30200] [30201-30400] [30401-30600] [30601-30800] [30801-31000] [31001-31200] [31201-31400] [31401-31600] [31601-31800] [31801-32000] [32001-32200] [32201-32400] [32401-32600] [32601-32800] [32801-33000] [33001-33200] [33201-33400] [33401-33600] [33601-33800] [33801-34000] [34001-34200] [34201-34400] [34401-34600] [34601-34800] [34801-35000] [35001-35200] [35201-35400] [35401-35600] [35601-35800] [35801-36000] [36001-36200] [36201-36400] [36401-36600] [36601-36800] [36801-37000] [37001-37200] [37201-37400] [37401-37600] [37601-37800] [37801-38000] [38001-38200] [38201-38400] [38401-38600] [38601-38800] [38801-39000] [39001-39200] [39201-39400] [39401-39600] [39601-39800] [39801-40000] [40001-40200] [40201-40400] [40401-40600] [40601-40800] [40801-41000] [41001-41200] [41201-41400] [41401-41600] [41601-41800] [41801-42000] [42001-42200] [42201-42400] [42401-42600] [42601-42800] [42801-43000] [43001-43200] [43201-43400] [43401-43600] [43601-43800] [43801-44000] [44001-44200] [44201-44400] [44401-44600] [44601-44800] [44801-45000] [45001-45200] [45201-45400] [45401-45600] [45601-45800] [45801-46000] [46001-46200] [46201-46400] [46401-46600] [46601-46800] [46801-47000] [47001-47200] [47201-47400] [47401-47600] [47601-47800] [47801-48000] [48001-48200] [48201-48400] [48401-48600] [48601-48800] [48801-49000] [49001-49200] [49201-49400] [49401-49600] [49601-49800] [49801-50000] [50001-50200] [50201-50388]